sensor_id;sensor_type;location;lat;lon;timestamp;temperature;humidity
4739;DHT22;2383;48.632;10.156;2023-05-29T00:02:18;12.80;86.20
4739;DHT22;2383;48.632;10.156;2023-05-29T00:06:20;12.90;85.80
4739;DHT22;2383;48.632;10.156;2023-05-29T00:10:22;12.70;86.00
4739;DHT22;2383;48.632;10.156;2023-05-29T00:14:25;12.60;85.90
4739;DHT22;2383;48.632;10.156;2023-05-29T00:18:27;12.20;86.60
4739;DHT22;2383;48.632;10.156;2023-05-29T00:22:28;12.40;86.50
4739;DHT22;2383;48.632;10.156;2023-05-29T00:26:31;12.50;86.30
4739;DHT22;2383;48.632;10.156;2023-05-29T00:30:33;12.60;86.30
4739;DHT22;2383;48.632;10.156;2023-05-29T00:34:35;12.50;86.10
4739;DHT22;2383;48.632;10.156;2023-05-29T00:38:37;12.40;86.40
4739;DHT22;2383;48.632;10.156;2023-05-29T00:42:39;12.20;87.10
4739;DHT22;2383;48.632;10.156;2023-05-29T00:46:41;12.20;87.30
4739;DHT22;2383;48.632;10.156;2023-05-29T00:50:44;12.20;87.50
4739;DHT22;2383;48.632;10.156;2023-05-29T00:54:46;12.00;88.10
4739;DHT22;2383;48.632;10.156;2023-05-29T00:58:50;12.00;87.30
4739;DHT22;2383;48.632;10.156;2023-05-29T01:02:53;11.90;87.50
4739;DHT22;2383;48.632;10.156;2023-05-29T01:06:56;12.00;87.10
4739;DHT22;2383;48.632;10.156;2023-05-29T01:11:32;12.30;86.60
4739;DHT22;2383;48.632;10.156;2023-05-29T01:15:58;12.20;86.70
4739;DHT22;2383;48.632;10.156;2023-05-29T01:20:12;11.90;86.80
4739;DHT22;2383;48.632;10.156;2023-05-29T01:24:37;11.70;87.70
4739;DHT22;2383;48.632;10.156;2023-05-29T01:28:47;11.80;87.60
4739;DHT22;2383;48.632;10.156;2023-05-29T01:32:50;12.10;87.50
4739;DHT22;2383;48.632;10.156;2023-05-29T01:36:53;12.20;87.30
4739;DHT22;2383;48.632;10.156;2023-05-29T01:40:56;12.30;87.20
4739;DHT22;2383;48.632;10.156;2023-05-29T01:44:59;12.30;86.90
4739;DHT22;2383;48.632;10.156;2023-05-29T01:49:01;12.30;87.00
4739;DHT22;2383;48.632;10.156;2023-05-29T01:53:04;11.80;87.10
4739;DHT22;2383;48.632;10.156;2023-05-29T01:57:06;10.90;89.00
4739;DHT22;2383;48.632;10.156;2023-05-29T02:01:09;10.90;89.20
4739;DHT22;2383;48.632;10.156;2023-05-29T02:05:12;11.20;88.90
4739;DHT22;2383;48.632;10.156;2023-05-29T02:09:16;11.50;88.10
4739;DHT22;2383;48.632;10.156;2023-05-29T02:13:19;11.50;88.20
4739;DHT22;2383;48.632;10.156;2023-05-29T02:17:21;11.50;88.20
4739;DHT22;2383;48.632;10.156;2023-05-29T02:21:23;11.30;88.70
4739;DHT22;2383;48.632;10.156;2023-05-29T02:25:24;11.40;88.40
4739;DHT22;2383;48.632;10.156;2023-05-29T02:29:27;11.50;87.90
4739;DHT22;2383;48.632;10.156;2023-05-29T02:33:29;11.20;88.30
4739;DHT22;2383;48.632;10.156;2023-05-29T02:37:31;11.40;88.00
4739;DHT22;2383;48.632;10.156;2023-05-29T02:41:33;11.40;88.20
4739;DHT22;2383;48.632;10.156;2023-05-29T02:45:35;11.70;87.90
4739;DHT22;2383;48.632;10.156;2023-05-29T02:49:37;11.40;87.80
4739;DHT22;2383;48.632;10.156;2023-05-29T02:53:39;11.30;87.90
4739;DHT22;2383;48.632;10.156;2023-05-29T02:57:42;11.00;88.60
4739;DHT22;2383;48.632;10.156;2023-05-29T03:01:44;11.00;88.60
4739;DHT22;2383;48.632;10.156;2023-05-29T03:05:47;11.20;88.10
4739;DHT22;2383;48.632;10.156;2023-05-29T03:09:49;11.40;87.70
4739;DHT22;2383;48.632;10.156;2023-05-29T03:13:52;11.40;87.70
4739;DHT22;2383;48.632;10.156;2023-05-29T03:17:53;11.40;87.70
4739;DHT22;2383;48.632;10.156;2023-05-29T03:22:00;11.00;88.00
4739;DHT22;2383;48.632;10.156;2023-05-29T03:26:04;10.80;88.60
4739;DHT22;2383;48.632;10.156;2023-05-29T03:30:10;10.80;88.70
4739;DHT22;2383;48.632;10.156;2023-05-29T03:34:12;10.50;89.20
4739;DHT22;2383;48.632;10.156;2023-05-29T03:38:18;10.70;89.00
4739;DHT22;2383;48.632;10.156;2023-05-29T03:42:20;10.80;88.80
4739;DHT22;2383;48.632;10.156;2023-05-29T03:46:24;10.80;88.70
4739;DHT22;2383;48.632;10.156;2023-05-29T03:50:28;10.90;88.50
4739;DHT22;2383;48.632;10.156;2023-05-29T03:54:30;10.70;88.90
4739;DHT22;2383;48.632;10.156;2023-05-29T03:58:34;10.30;89.60
4739;DHT22;2383;48.632;10.156;2023-05-29T04:02:38;9.90;90.20
4739;DHT22;2383;48.632;10.156;2023-05-29T04:06:40;10.00;90.30
4739;DHT22;2383;48.632;10.156;2023-05-29T04:10:43;10.10;90.20
4739;DHT22;2383;48.632;10.156;2023-05-29T04:14:45;10.40;90.00
4739;DHT22;2383;48.632;10.156;2023-05-29T04:18:47;9.70;90.60
4739;DHT22;2383;48.632;10.156;2023-05-29T04:22:50;9.50;91.20
4739;DHT22;2383;48.632;10.156;2023-05-29T04:26:53;10.00;90.70
4739;DHT22;2383;48.632;10.156;2023-05-29T04:30:55;10.10;90.50
4739;DHT22;2383;48.632;10.156;2023-05-29T04:34:59;10.60;90.20
4739;DHT22;2383;48.632;10.156;2023-05-29T04:39:07;10.80;90.10
4739;DHT22;2383;48.632;10.156;2023-05-29T04:43:09;10.60;90.30
4739;DHT22;2383;48.632;10.156;2023-05-29T04:47:44;10.40;90.80
4739;DHT22;2383;48.632;10.156;2023-05-29T04:51:47;10.90;90.40
4739;DHT22;2383;48.632;10.156;2023-05-29T04:55:49;10.70;90.60
4739;DHT22;2383;48.632;10.156;2023-05-29T04:59:51;11.00;90.50
4739;DHT22;2383;48.632;10.156;2023-05-29T05:03:53;11.20;90.40
4739;DHT22;2383;48.632;10.156;2023-05-29T05:07:58;11.40;90.30
4739;DHT22;2383;48.632;10.156;2023-05-29T05:12:00;11.50;90.40
4739;DHT22;2383;48.632;10.156;2023-05-29T05:16:03;11.90;90.20
4739;DHT22;2383;48.632;10.156;2023-05-29T05:20:07;12.00;90.30
4739;DHT22;2383;48.632;10.156;2023-05-29T05:24:11;12.00;90.40
4739;DHT22;2383;48.632;10.156;2023-05-29T05:28:14;12.00;90.30
4739;DHT22;2383;48.632;10.156;2023-05-29T05:32:17;12.30;90.20
4739;DHT22;2383;48.632;10.156;2023-05-29T05:36:22;12.50;90.20
4739;DHT22;2383;48.632;10.156;2023-05-29T05:40:30;12.60;90.20
4739;DHT22;2383;48.632;10.156;2023-05-29T05:44:39;12.80;90.30
4739;DHT22;2383;48.632;10.156;2023-05-29T05:48:46;12.70;90.60
4739;DHT22;2383;48.632;10.156;2023-05-29T05:52:48;13.10;90.30
4739;DHT22;2383;48.632;10.156;2023-05-29T05:56:50;13.50;89.90
4739;DHT22;2383;48.632;10.156;2023-05-29T06:00:53;13.60;89.70
4739;DHT22;2383;48.632;10.156;2023-05-29T06:04:56;13.80;89.40
4739;DHT22;2383;48.632;10.156;2023-05-29T06:08:59;14.10;89.10
4739;DHT22;2383;48.632;10.156;2023-05-29T06:13:03;14.40;88.60
4739;DHT22;2383;48.632;10.156;2023-05-29T06:17:15;14.50;87.70
4739;DHT22;2383;48.632;10.156;2023-05-29T06:21:17;14.40;87.90
4739;DHT22;2383;48.632;10.156;2023-05-29T06:25:25;14.60;87.00
4739;DHT22;2383;48.632;10.156;2023-05-29T06:29:35;14.80;86.60
4739;DHT22;2383;48.632;10.156;2023-05-29T06:33:37;15.20;86.00
4739;DHT22;2383;48.632;10.156;2023-05-29T06:37:40;15.40;85.50
4739;DHT22;2383;48.632;10.156;2023-05-29T06:41:42;15.40;85.80
4739;DHT22;2383;48.632;10.156;2023-05-29T06:45:46;15.20;85.20
4739;DHT22;2383;48.632;10.156;2023-05-29T06:49:49;15.50;86.00
4739;DHT22;2383;48.632;10.156;2023-05-29T06:53:51;15.70;84.50
4739;DHT22;2383;48.632;10.156;2023-05-29T06:57:54;16.00;84.30
4739;DHT22;2383;48.632;10.156;2023-05-29T07:01:58;15.90;84.20
4739;DHT22;2383;48.632;10.156;2023-05-29T07:06:02;16.10;83.50
4739;DHT22;2383;48.632;10.156;2023-05-29T07:10:04;16.30;82.60
4739;DHT22;2383;48.632;10.156;2023-05-29T07:14:08;16.50;82.50
4739;DHT22;2383;48.632;10.156;2023-05-29T07:18:10;16.70;82.60
4739;DHT22;2383;48.632;10.156;2023-05-29T07:22:12;16.80;82.10
4739;DHT22;2383;48.632;10.156;2023-05-29T07:26:14;16.60;82.90
4739;DHT22;2383;48.632;10.156;2023-05-29T07:30:17;15.30;83.40
4739;DHT22;2383;48.632;10.156;2023-05-29T07:34:20;15.10;85.80
4739;DHT22;2383;48.632;10.156;2023-05-29T07:38:23;16.20;84.40
4739;DHT22;2383;48.632;10.156;2023-05-29T07:42:25;16.70;83.30
4739;DHT22;2383;48.632;10.156;2023-05-29T07:46:27;17.00;83.40
4739;DHT22;2383;48.632;10.156;2023-05-29T07:50:45;17.10;83.90
4739;DHT22;2383;48.632;10.156;2023-05-29T07:54:50;16.90;83.60
4739;DHT22;2383;48.632;10.156;2023-05-29T07:58:52;17.00;84.20
4739;DHT22;2383;48.632;10.156;2023-05-29T08:02:56;17.10;85.00
4739;DHT22;2383;48.632;10.156;2023-05-29T08:07:00;17.20;81.90
4739;DHT22;2383;48.632;10.156;2023-05-29T08:11:03;17.10;81.90
4739;DHT22;2383;48.632;10.156;2023-05-29T08:15:06;17.60;81.30
4739;DHT22;2383;48.632;10.156;2023-05-29T08:19:08;17.80;80.80
4739;DHT22;2383;48.632;10.156;2023-05-29T08:23:11;17.80;80.10
4739;DHT22;2383;48.632;10.156;2023-05-29T08:27:13;17.90;81.40
4739;DHT22;2383;48.632;10.156;2023-05-29T08:31:16;17.80;80.00
4739;DHT22;2383;48.632;10.156;2023-05-29T08:35:18;17.60;80.30
4739;DHT22;2383;48.632;10.156;2023-05-29T08:39:20;17.00;80.90
4739;DHT22;2383;48.632;10.156;2023-05-29T08:43:23;17.40;79.90
4739;DHT22;2383;48.632;10.156;2023-05-29T08:47:27;17.50;82.10
4739;DHT22;2383;48.632;10.156;2023-05-29T08:51:32;17.80;78.30
4739;DHT22;2383;48.632;10.156;2023-05-29T08:55:38;16.80;77.10
4739;DHT22;2383;48.632;10.156;2023-05-29T08:59:42;17.00;76.60
4739;DHT22;2383;48.632;10.156;2023-05-29T09:03:45;17.70;75.00
4739;DHT22;2383;48.632;10.156;2023-05-29T09:07:48;18.10;74.70
4739;DHT22;2383;48.632;10.156;2023-05-29T09:11:52;17.90;74.10
4739;DHT22;2383;48.632;10.156;2023-05-29T09:16:01;17.40;73.00
4739;DHT22;2383;48.632;10.156;2023-05-29T09:20:15;17.90;73.30
4739;DHT22;2383;48.632;10.156;2023-05-29T09:24:19;18.10;72.60
4739;DHT22;2383;48.632;10.156;2023-05-29T09:28:21;18.50;71.70
4739;DHT22;2383;48.632;10.156;2023-05-29T09:32:32;18.40;72.10
4739;DHT22;2383;48.632;10.156;2023-05-29T09:36:37;18.30;72.50
4739;DHT22;2383;48.632;10.156;2023-05-29T09:40:40;17.70;72.40
4739;DHT22;2383;48.632;10.156;2023-05-29T09:44:45;17.20;74.20
4739;DHT22;2383;48.632;10.156;2023-05-29T09:48:48;17.80;74.30
4739;DHT22;2383;48.632;10.156;2023-05-29T09:52:51;18.60;70.90
4739;DHT22;2383;48.632;10.156;2023-05-29T09:56:56;17.80;71.80
4739;DHT22;2383;48.632;10.156;2023-05-29T10:00:59;18.20;71.60
4739;DHT22;2383;48.632;10.156;2023-05-29T10:05:02;18.50;70.00
4739;DHT22;2383;48.632;10.156;2023-05-29T10:09:09;18.70;67.30
4739;DHT22;2383;48.632;10.156;2023-05-29T10:13:14;18.10;66.00
4739;DHT22;2383;48.632;10.156;2023-05-29T10:17:18;18.80;65.50
4739;DHT22;2383;48.632;10.156;2023-05-29T10:21:27;18.80;66.40
4739;DHT22;2383;48.632;10.156;2023-05-29T10:25:33;18.90;66.50
4739;DHT22;2383;48.632;10.156;2023-05-29T10:34:09;19.10;64.70
4739;DHT22;2383;48.632;10.156;2023-05-29T10:38:16;19.40;65.70
4739;DHT22;2383;48.632;10.156;2023-05-29T10:50:51;18.90;63.90
4739;DHT22;2383;48.632;10.156;2023-05-29T10:54:54;19.20;66.00
4739;DHT22;2383;48.632;10.156;2023-05-29T10:58:59;19.70;65.20
4739;DHT22;2383;48.632;10.156;2023-05-29T11:03:03;19.30;65.80
4739;DHT22;2383;48.632;10.156;2023-05-29T11:07:06;19.20;64.20
4739;DHT22;2383;48.632;10.156;2023-05-29T11:11:15;19.40;64.80
4739;DHT22;2383;48.632;10.156;2023-05-29T11:15:17;18.90;63.80
4739;DHT22;2383;48.632;10.156;2023-05-29T11:19:20;18.90;65.70
4739;DHT22;2383;48.632;10.156;2023-05-29T11:23:22;19.20;63.90
4739;DHT22;2383;48.632;10.156;2023-05-29T11:27:27;19.60;65.50
4739;DHT22;2383;48.632;10.156;2023-05-29T11:31:32;20.10;67.40
4739;DHT22;2383;48.632;10.156;2023-05-29T11:35:38;19.20;66.00
4739;DHT22;2383;48.632;10.156;2023-05-29T11:39:41;18.60;67.30
4739;DHT22;2383;48.632;10.156;2023-05-29T11:43:44;18.90;66.80
4739;DHT22;2383;48.632;10.156;2023-05-29T11:47:55;19.70;67.40
4739;DHT22;2383;48.632;10.156;2023-05-29T11:56:15;18.90;63.60
4739;DHT22;2383;48.632;10.156;2023-05-29T12:00:18;19.10;62.40
4739;DHT22;2383;48.632;10.156;2023-05-29T12:04:21;19.10;65.20
4739;DHT22;2383;48.632;10.156;2023-05-29T12:08:24;18.80;67.00
4739;DHT22;2383;48.632;10.156;2023-05-29T12:12:26;19.20;66.10
4739;DHT22;2383;48.632;10.156;2023-05-29T12:16:33;18.30;66.80
4739;DHT22;2383;48.632;10.156;2023-05-29T12:20:35;19.00;65.80
4739;DHT22;2383;48.632;10.156;2023-05-29T12:24:38;19.30;66.00
4739;DHT22;2383;48.632;10.156;2023-05-29T12:28:45;20.00;63.50
4739;DHT22;2383;48.632;10.156;2023-05-29T12:32:49;20.00;63.10
4739;DHT22;2383;48.632;10.156;2023-05-29T12:36:52;19.70;63.00
4739;DHT22;2383;48.632;10.156;2023-05-29T12:40:54;20.00;61.70
4739;DHT22;2383;48.632;10.156;2023-05-29T12:44:56;18.50;61.70
4739;DHT22;2383;48.632;10.156;2023-05-29T12:53:15;19.50;60.20
4739;DHT22;2383;48.632;10.156;2023-05-29T12:57:17;19.60;60.30
4739;DHT22;2383;48.632;10.156;2023-05-29T13:01:19;18.70;58.40
4739;DHT22;2383;48.632;10.156;2023-05-29T13:05:23;18.30;59.40
4739;DHT22;2383;48.632;10.156;2023-05-29T13:09:26;18.70;60.40
4739;DHT22;2383;48.632;10.156;2023-05-29T13:13:28;19.10;59.70
4739;DHT22;2383;48.632;10.156;2023-05-29T13:17:30;20.00;59.50
4739;DHT22;2383;48.632;10.156;2023-05-29T13:21:35;19.30;58.80
4739;DHT22;2383;48.632;10.156;2023-05-29T13:25:38;19.70;58.50
4739;DHT22;2383;48.632;10.156;2023-05-29T13:29:40;20.00;57.20
4739;DHT22;2383;48.632;10.156;2023-05-29T13:33:42;19.90;57.00
4739;DHT22;2383;48.632;10.156;2023-05-29T13:37:44;20.30;54.20
4739;DHT22;2383;48.632;10.156;2023-05-29T13:41:47;20.30;57.30
4739;DHT22;2383;48.632;10.156;2023-05-29T13:45:49;20.50;56.70
4739;DHT22;2383;48.632;10.156;2023-05-29T13:49:51;20.20;57.20
4739;DHT22;2383;48.632;10.156;2023-05-29T13:53:53;19.90;56.50
4739;DHT22;2383;48.632;10.156;2023-05-29T13:57:55;20.70;57.10
4739;DHT22;2383;48.632;10.156;2023-05-29T14:01:59;20.40;56.10
4739;DHT22;2383;48.632;10.156;2023-05-29T14:06:02;20.80;53.80
4739;DHT22;2383;48.632;10.156;2023-05-29T14:10:07;20.20;51.30
4739;DHT22;2383;48.632;10.156;2023-05-29T14:14:11;20.20;51.50
4739;DHT22;2383;48.632;10.156;2023-05-29T14:18:13;20.60;52.40
4739;DHT22;2383;48.632;10.156;2023-05-29T14:22:15;20.20;50.50
4739;DHT22;2383;48.632;10.156;2023-05-29T14:26:18;20.50;50.80
4739;DHT22;2383;48.632;10.156;2023-05-29T14:30:20;19.90;49.50
4739;DHT22;2383;48.632;10.156;2023-05-29T14:34:22;20.00;49.30
4739;DHT22;2383;48.632;10.156;2023-05-29T14:38:24;20.80;50.80
4739;DHT22;2383;48.632;10.156;2023-05-29T14:42:28;20.30;51.70
4739;DHT22;2383;48.632;10.156;2023-05-29T14:46:30;20.80;51.10
4739;DHT22;2383;48.632;10.156;2023-05-29T14:50:35;20.20;53.70
4739;DHT22;2383;48.632;10.156;2023-05-29T14:54:37;20.20;52.70
4739;DHT22;2383;48.632;10.156;2023-05-29T14:58:39;19.90;54.20
4739;DHT22;2383;48.632;10.156;2023-05-29T15:02:42;20.70;55.60
4739;DHT22;2383;48.632;10.156;2023-05-29T15:06:45;21.10;54.80
4739;DHT22;2383;48.632;10.156;2023-05-29T15:10:56;21.10;55.20
4739;DHT22;2383;48.632;10.156;2023-05-29T15:14:58;21.40;54.70
4739;DHT22;2383;48.632;10.156;2023-05-29T15:19:00;21.30;56.90
4739;DHT22;2383;48.632;10.156;2023-05-29T15:23:02;21.10;57.60
4739;DHT22;2383;48.632;10.156;2023-05-29T15:27:05;21.10;56.30
4739;DHT22;2383;48.632;10.156;2023-05-29T15:31:07;21.20;54.90
4739;DHT22;2383;48.632;10.156;2023-05-29T15:35:10;19.70;53.00
4739;DHT22;2383;48.632;10.156;2023-05-29T15:39:13;20.10;53.90
4739;DHT22;2383;48.632;10.156;2023-05-29T15:43:16;20.70;53.20
4739;DHT22;2383;48.632;10.156;2023-05-29T15:47:18;20.10;52.40
4739;DHT22;2383;48.632;10.156;2023-05-29T15:51:20;20.30;52.60
4739;DHT22;2383;48.632;10.156;2023-05-29T15:55:23;20.40;51.70
4739;DHT22;2383;48.632;10.156;2023-05-29T15:59:25;21.40;52.70
4739;DHT22;2383;48.632;10.156;2023-05-29T16:03:28;20.80;53.40
4739;DHT22;2383;48.632;10.156;2023-05-29T16:07:30;21.40;53.20
4739;DHT22;2383;48.632;10.156;2023-05-29T16:11:32;22.30;53.10
4739;DHT22;2383;48.632;10.156;2023-05-29T16:15:34;21.40;53.70
4739;DHT22;2383;48.632;10.156;2023-05-29T16:19:36;21.80;52.50
4739;DHT22;2383;48.632;10.156;2023-05-29T16:23:39;20.90;53.70
4739;DHT22;2383;48.632;10.156;2023-05-29T16:27:41;21.80;54.50
4739;DHT22;2383;48.632;10.156;2023-05-29T16:31:43;22.50;53.20
4739;DHT22;2383;48.632;10.156;2023-05-29T16:35:46;23.20;54.00
4739;DHT22;2383;48.632;10.156;2023-05-29T16:39:49;23.40;51.20
4739;DHT22;2383;48.632;10.156;2023-05-29T16:43:50;23.00;52.70
4739;DHT22;2383;48.632;10.156;2023-05-29T16:47:53;22.20;52.00
4739;DHT22;2383;48.632;10.156;2023-05-29T16:51:55;21.60;51.50
4739;DHT22;2383;48.632;10.156;2023-05-29T16:55:57;21.90;51.70
4739;DHT22;2383;48.632;10.156;2023-05-29T16:59:59;21.70;51.00
4739;DHT22;2383;48.632;10.156;2023-05-29T17:04:01;21.20;50.80
4739;DHT22;2383;48.632;10.156;2023-05-29T17:08:08;21.20;49.90
4739;DHT22;2383;48.632;10.156;2023-05-29T17:12:10;20.00;50.30
4739;DHT22;2383;48.632;10.156;2023-05-29T17:16:14;20.60;52.30
4739;DHT22;2383;48.632;10.156;2023-05-29T17:20:16;21.20;52.90
4739;DHT22;2383;48.632;10.156;2023-05-29T17:24:18;20.20;53.40
4739;DHT22;2383;48.632;10.156;2023-05-29T17:28:20;19.60;52.80
4739;DHT22;2383;48.632;10.156;2023-05-29T17:32:22;20.30;52.80
4739;DHT22;2383;48.632;10.156;2023-05-29T17:36:24;20.70;52.90
4739;DHT22;2383;48.632;10.156;2023-05-29T17:40:27;20.60;53.30
4739;DHT22;2383;48.632;10.156;2023-05-29T17:44:29;20.10;54.60
4739;DHT22;2383;48.632;10.156;2023-05-29T17:48:31;20.50;53.70
4739;DHT22;2383;48.632;10.156;2023-05-29T17:52:33;20.50;54.50
4739;DHT22;2383;48.632;10.156;2023-05-29T17:56:37;20.80;53.10
4739;DHT22;2383;48.632;10.156;2023-05-29T18:00:39;20.80;53.10
4739;DHT22;2383;48.632;10.156;2023-05-29T18:04:41;19.90;54.70
4739;DHT22;2383;48.632;10.156;2023-05-29T18:08:44;20.10;54.80
4739;DHT22;2383;48.632;10.156;2023-05-29T18:12:46;20.10;55.00
4739;DHT22;2383;48.632;10.156;2023-05-29T18:16:49;20.20;55.80
4739;DHT22;2383;48.632;10.156;2023-05-29T18:20:51;20.20;54.80
4739;DHT22;2383;48.632;10.156;2023-05-29T18:24:53;20.10;55.10
4739;DHT22;2383;48.632;10.156;2023-05-29T18:28:56;20.30;55.50
4739;DHT22;2383;48.632;10.156;2023-05-29T18:33:04;20.20;55.10
4739;DHT22;2383;48.632;10.156;2023-05-29T18:37:06;20.00;55.30
4739;DHT22;2383;48.632;10.156;2023-05-29T18:41:10;20.10;55.50
4739;DHT22;2383;48.632;10.156;2023-05-29T18:45:12;20.20;56.10
4739;DHT22;2383;48.632;10.156;2023-05-29T18:49:14;20.10;57.30
4739;DHT22;2383;48.632;10.156;2023-05-29T18:53:17;20.20;59.00
4739;DHT22;2383;48.632;10.156;2023-05-29T18:57:19;20.10;61.00
4739;DHT22;2383;48.632;10.156;2023-05-29T19:01:21;19.80;62.90
4739;DHT22;2383;48.632;10.156;2023-05-29T19:05:35;19.30;64.70
4739;DHT22;2383;48.632;10.156;2023-05-29T19:09:37;18.80;66.30
4739;DHT22;2383;48.632;10.156;2023-05-29T19:13:39;18.60;67.10
4739;DHT22;2383;48.632;10.156;2023-05-29T19:17:41;18.50;67.30
4739;DHT22;2383;48.632;10.156;2023-05-29T19:21:43;18.30;68.20
4739;DHT22;2383;48.632;10.156;2023-05-29T19:25:46;18.00;69.20
4739;DHT22;2383;48.632;10.156;2023-05-29T19:29:48;17.40;69.50
4739;DHT22;2383;48.632;10.156;2023-05-29T19:33:50;17.40;68.60
4739;DHT22;2383;48.632;10.156;2023-05-29T19:37:52;17.30;68.60
4739;DHT22;2383;48.632;10.156;2023-05-29T19:41:54;16.80;68.30
4739;DHT22;2383;48.632;10.156;2023-05-29T19:45:57;16.80;68.30
4739;DHT22;2383;48.632;10.156;2023-05-29T19:50:07;17.40;68.10
4739;DHT22;2383;48.632;10.156;2023-05-29T19:54:10;17.60;68.30
4739;DHT22;2383;48.632;10.156;2023-05-29T19:58:12;17.60;67.70
4739;DHT22;2383;48.632;10.156;2023-05-29T20:02:14;17.40;68.20
4739;DHT22;2383;48.632;10.156;2023-05-29T20:06:16;17.30;68.30
4739;DHT22;2383;48.632;10.156;2023-05-29T20:10:19;17.40;68.50
4739;DHT22;2383;48.632;10.156;2023-05-29T20:14:21;17.50;68.40
4739;DHT22;2383;48.632;10.156;2023-05-29T20:18:24;17.60;68.30
4739;DHT22;2383;48.632;10.156;2023-05-29T20:22:26;17.20;69.00
4739;DHT22;2383;48.632;10.156;2023-05-29T20:26:28;17.20;69.40
4739;DHT22;2383;48.632;10.156;2023-05-29T20:30:30;17.20;69.50
4739;DHT22;2383;48.632;10.156;2023-05-29T20:34:32;17.30;69.60
4739;DHT22;2383;48.632;10.156;2023-05-29T20:38:35;17.20;69.60
4739;DHT22;2383;48.632;10.156;2023-05-29T20:42:40;17.20;69.90
4739;DHT22;2383;48.632;10.156;2023-05-29T20:46:44;17.10;70.00
4739;DHT22;2383;48.632;10.156;2023-05-29T20:50:46;16.80;70.50
4739;DHT22;2383;48.632;10.156;2023-05-29T20:54:49;16.90;70.60
4739;DHT22;2383;48.632;10.156;2023-05-29T20:58:51;16.70;71.00
4739;DHT22;2383;48.632;10.156;2023-05-29T21:02:53;16.80;71.00
4739;DHT22;2383;48.632;10.156;2023-05-29T21:06:56;16.80;71.10
4739;DHT22;2383;48.632;10.156;2023-05-29T21:10:58;16.70;71.50
4739;DHT22;2383;48.632;10.156;2023-05-29T21:15:00;16.20;72.00
4739;DHT22;2383;48.632;10.156;2023-05-29T21:19:02;16.10;72.60
4739;DHT22;2383;48.632;10.156;2023-05-29T21:23:04;16.10;72.40
4739;DHT22;2383;48.632;10.156;2023-05-29T21:27:08;16.30;72.30
4739;DHT22;2383;48.632;10.156;2023-05-29T21:31:10;16.40;72.20
4739;DHT22;2383;48.632;10.156;2023-05-29T21:35:14;16.20;72.30
4739;DHT22;2383;48.632;10.156;2023-05-29T21:39:16;16.30;72.30
4739;DHT22;2383;48.632;10.156;2023-05-29T21:43:18;16.20;72.20
4739;DHT22;2383;48.632;10.156;2023-05-29T21:47:20;16.10;72.90
4739;DHT22;2383;48.632;10.156;2023-05-29T21:51:23;16.10;72.70
4739;DHT22;2383;48.632;10.156;2023-05-29T21:55:25;16.00;73.00
4739;DHT22;2383;48.632;10.156;2023-05-29T21:59:27;15.80;73.30
4739;DHT22;2383;48.632;10.156;2023-05-29T22:03:29;15.50;73.90
4739;DHT22;2383;48.632;10.156;2023-05-29T22:07:32;15.10;74.70
4739;DHT22;2383;48.632;10.156;2023-05-29T22:11:34;15.10;74.80
4739;DHT22;2383;48.632;10.156;2023-05-29T22:15:39;15.50;74.30
4739;DHT22;2383;48.632;10.156;2023-05-29T22:19:41;15.50;74.40
4739;DHT22;2383;48.632;10.156;2023-05-29T22:23:44;15.40;74.70
4739;DHT22;2383;48.632;10.156;2023-05-29T22:27:46;15.50;74.70
4739;DHT22;2383;48.632;10.156;2023-05-29T22:31:48;15.50;74.40
4739;DHT22;2383;48.632;10.156;2023-05-29T22:35:52;15.50;74.60
4739;DHT22;2383;48.632;10.156;2023-05-29T22:39:55;15.00;75.50
4739;DHT22;2383;48.632;10.156;2023-05-29T22:43:57;15.20;75.40
4739;DHT22;2383;48.632;10.156;2023-05-29T22:47:59;15.10;75.30
4739;DHT22;2383;48.632;10.156;2023-05-29T22:52:02;14.70;75.80
4739;DHT22;2383;48.632;10.156;2023-05-29T22:56:05;14.10;76.80
4739;DHT22;2383;48.632;10.156;2023-05-29T23:00:07;14.90;75.90
4739;DHT22;2383;48.632;10.156;2023-05-29T23:04:14;15.10;75.60
4739;DHT22;2383;48.632;10.156;2023-05-29T23:08:16;15.20;75.60
4739;DHT22;2383;48.632;10.156;2023-05-29T23:12:19;15.10;75.70
4739;DHT22;2383;48.632;10.156;2023-05-29T23:16:21;15.10;75.70
4739;DHT22;2383;48.632;10.156;2023-05-29T23:20:24;15.10;75.60
4739;DHT22;2383;48.632;10.156;2023-05-29T23:24:26;14.90;75.90
4739;DHT22;2383;48.632;10.156;2023-05-29T23:28:28;14.90;76.30
4739;DHT22;2383;48.632;10.156;2023-05-29T23:32:30;14.80;77.00
4739;DHT22;2383;48.632;10.156;2023-05-29T23:36:32;14.80;76.20
4739;DHT22;2383;48.632;10.156;2023-05-29T23:40:34;14.60;76.70
4739;DHT22;2383;48.632;10.156;2023-05-29T23:44:37;14.80;76.60
4739;DHT22;2383;48.632;10.156;2023-05-29T23:48:39;14.80;76.50
4739;DHT22;2383;48.632;10.156;2023-05-29T23:52:42;14.00;77.80
4739;DHT22;2383;48.632;10.156;2023-05-29T23:56:45;14.10;77.20
